Time;durP1;ratioP1;P1;durP2;ratioP2;P2;SDS_P1;SDS_P2;PMS_P1;PMS_P2;Temp;Humidity;BMP_temperature;BMP_pressure;BME280_temperature;BME280_humidity;BME280_pressure;Samples;Min_cycle;Max_cycle;Signal;HPM_P1;HPM_P2
2021/10/14 00:01:48;;;;;;;7.40;5.70;;;11.60;99.90;;;;;;5032474;28;20192;-75
2021/10/14 00:04:14;;;;;;;7.23;6.03;;;11.60;99.90;;;;;;5032657;28;20657;-75
2021/10/14 00:06:40;;;;;;;9.20;6.37;;;11.60;99.90;;;;;;5032237;28;20161;-74
2021/10/14 00:09:06;;;;;;;9.50;6.13;;;11.60;99.90;;;;;;5032418;28;20845;-74
2021/10/14 00:11:31;;;;;;;12.27;7.00;;;11.60;99.90;;;;;;5032416;28;20169;-74
2021/10/14 00:13:57;;;;;;;9.63;6.00;;;11.60;99.90;;;;;;5032512;28;20168;-74
2021/10/14 00:16:23;;;;;;;8.83;7.50;;;11.60;99.90;;;;;;5032626;28;20187;-74
2021/10/14 00:18:48;;;;;;;7.70;6.03;;;11.60;99.90;;;;;;5032345;28;20153;-74
2021/10/14 00:21:14;;;;;;;7.90;6.00;;;11.60;99.90;;;;;;5032161;28;20675;-74
2021/10/14 00:23:39;;;;;;;9.73;7.60;;;11.60;99.90;;;;;;5032107;28;20177;-76
2021/10/14 00:26:05;;;;;;;11.90;8.10;;;11.60;99.90;;;;;;5031985;28;20215;-74
2021/10/14 00:28:31;;;;;;;9.80;8.70;;;11.60;99.90;;;;;;5032211;28;20216;-75
2021/10/14 00:30:56;;;;;;;11.90;8.37;;;11.60;99.90;;;;;;5031886;28;20169;-74
2021/10/14 00:33:22;;;;;;;12.20;7.60;;;11.60;99.90;;;;;;5028723;28;20204;-74
2021/10/14 00:35:47;;;;;;;11.40;7.10;;;11.60;99.90;;;;;;5012557;28;20544;-75
2021/10/14 00:38:13;;;;;;;8.07;6.90;;;11.60;99.90;;;;;;5012522;28;20162;-74
2021/10/14 00:40:39;;;;;;;8.20;7.40;;;11.60;99.90;;;;;;5020447;28;20188;-74
2021/10/14 00:43:05;;;;;;;7.80;7.00;;;11.60;99.90;;;;;;5032024;28;20193;-74
2021/10/14 00:45:30;;;;;;;7.57;6.83;;;11.60;99.90;;;;;;5032412;28;20932;-74
2021/10/14 00:47:56;;;;;;;9.53;7.13;;;11.50;99.90;;;;;;5031833;28;20195;-74
2021/10/14 00:50:22;;;;;;;9.90;7.03;;;11.60;99.90;;;;;;5031520;28;20645;-74
2021/10/14 00:52:48;;;;;;;13.73;8.43;;;11.60;99.90;;;;;;5031958;28;20168;-75
2021/10/14 00:55:15;;;;;;;9.60;7.07;;;11.50;99.90;;;;;;5031594;28;20145;-74
2021/10/14 00:57:40;;;;;;;11.03;8.20;;;11.60;99.90;;;;;;5032137;28;20379;-74
2021/10/14 01:00:08;;;;;;;10.67;7.30;;;11.50;99.90;;;;;;5031588;28;20453;-74
2021/10/14 01:02:33;;;;;;;8.40;7.50;;;11.50;99.90;;;;;;5031866;28;20164;-74
2021/10/14 01:04:59;;;;;;;8.47;7.50;;;11.60;99.90;;;;;;5031430;28;20392;-74
2021/10/14 01:07:24;;;;;;;8.80;7.40;;;11.60;99.90;;;;;;5031536;28;20196;-74
2021/10/14 01:09:50;;;;;;;12.63;7.43;;;11.60;99.90;;;;;;5032089;28;20567;-74
2021/10/14 01:12:17;;;;;;;10.10;7.80;;;11.60;99.90;;;;;;5031652;28;20234;-74
2021/10/14 01:14:43;;;;;;;9.13;7.10;;;11.60;99.90;;;;;;5031994;28;20388;-74
2021/10/14 01:17:08;;;;;;;10.27;7.10;;;11.60;99.90;;;;;;5031741;28;20526;-74
2021/10/14 01:19:36;;;;;;;15.33;9.73;;;11.60;99.90;;;;;;5031667;28;20286;-74
2021/10/14 01:22:02;;;;;;;12.63;7.93;;;11.60;99.90;;;;;;5031479;28;20183;-75
2021/10/14 01:24:28;;;;;;;12.70;7.97;;;11.60;99.90;;;;;;5031631;28;20482;-74
2021/10/14 01:26:54;;;;;;;12.03;7.13;;;11.60;99.90;;;;;;5031668;28;20407;-74
2021/10/14 01:29:19;;;;;;;9.13;6.70;;;11.60;99.90;;;;;;5031538;28;20192;-74
2021/10/14 01:31:45;;;;;;;10.00;6.53;;;11.60;99.90;;;;;;5031205;28;20169;-74
2021/10/14 01:34:10;;;;;;;7.60;6.73;;;11.60;99.90;;;;;;5031370;28;20252;-74
2021/10/14 01:36:36;;;;;;;10.37;6.60;;;11.60;99.90;;;;;;5031557;28;20232;-75
2021/10/14 01:39:03;;;;;;;6.80;6.10;;;11.60;99.90;;;;;;5031640;28;20177;-74
2021/10/14 01:41:29;;;;;;;7.80;6.67;;;11.60;99.90;;;;;;5030771;28;20732;-74
2021/10/14 01:43:54;;;;;;;12.47;6.67;;;11.60;99.90;;;;;;5031338;28;20553;-74
2021/10/14 01:46:20;;;;;;;9.13;5.90;;;11.60;99.90;;;;;;5031447;28;20629;-75
2021/10/14 01:48:45;;;;;;;9.53;6.27;;;11.60;99.90;;;;;;5031363;28;20201;-74
2021/10/14 01:51:12;;;;;;;10.50;7.77;;;11.60;99.90;;;;;;5031183;28;20169;-74
2021/10/14 01:53:38;;;;;;;11.00;7.60;;;11.60;99.90;;;;;;5031739;28;20590;-74
2021/10/14 01:56:05;;;;;;;8.03;6.60;;;11.60;99.90;;;;;;5032707;28;20410;-74
2021/10/14 01:58:30;;;;;;;10.60;6.83;;;11.60;99.90;;;;;;5034822;28;20407;-74
2021/10/14 02:00:56;;;;;;;14.57;7.10;;;11.60;99.90;;;;;;5034683;28;20943;-74
2021/10/14 02:03:22;;;;;;;9.40;6.80;;;11.60;99.90;;;;;;5034916;28;20621;-74
2021/10/14 02:05:47;;;;;;;8.70;7.80;;;11.60;99.90;;;;;;5034793;28;20165;-74
2021/10/14 02:08:14;;;;;;;8.23;6.80;;;11.60;99.90;;;;;;5034688;28;20192;-74
2021/10/14 02:10:40;;;;;;;9.63;6.67;;;11.60;99.90;;;;;;5034340;28;20168;-74
2021/10/14 02:13:06;;;;;;;15.13;7.47;;;11.60;99.90;;;;;;5034593;28;20718;-74
2021/10/14 02:15:31;;;;;;;8.70;7.43;;;11.60;99.90;;;;;;5034757;28;20422;-75
2021/10/14 02:17:57;;;;;;;9.13;7.20;;;11.60;99.90;;;;;;5034625;28;20514;-75
2021/10/14 02:20:23;;;;;;;9.17;7.90;;;11.60;99.90;;;;;;5034289;28;20153;-74
2021/10/14 02:22:49;;;;;;;12.83;8.40;;;11.50;99.90;;;;;;5034456;28;20755;-74
2021/10/14 02:25:16;;;;;;;12.30;8.10;;;11.50;99.90;;;;;;5034406;28;20236;-74
2021/10/14 02:27:42;;;;;;;8.30;7.50;;;11.50;99.90;;;;;;5034292;28;20715;-74
2021/10/14 02:30:10;;;;;;;11.13;9.30;;;11.50;99.90;;;;;;5033993;28;20502;-74
2021/10/14 02:32:36;;;;;;;12.43;9.13;;;11.50;99.90;;;;;;5033988;28;20184;-74
2021/10/14 02:35:03;;;;;;;13.33;9.50;;;11.40;99.90;;;;;;5034175;28;20447;-75
2021/10/14 02:37:29;;;;;;;10.90;9.00;;;11.40;99.90;;;;;;5034913;28;20392;-81
2021/10/14 02:39:55;;;;;;;14.17;12.00;;;11.30;99.90;;;;;;5034235;28;20430;-79
2021/10/14 02:42:20;;;;;;;12.30;10.50;;;11.30;99.90;;;;;;5033950;28;20450;-81
2021/10/14 02:44:46;;;;;;;17.20;11.53;;;11.20;99.90;;;;;;5033987;28;20406;-80
2021/10/14 02:47:12;;;;;;;12.13;10.70;;;11.10;99.90;;;;;;5034193;28;20647;-81
2021/10/14 02:49:37;;;;;;;13.47;12.17;;;11.10;99.90;;;;;;5033664;28;20294;-78
2021/10/14 02:52:04;;;;;;;11.43;9.70;;;11.00;99.90;;;;;;5034273;28;20510;-81
2021/10/14 02:54:30;;;;;;;14.70;8.80;;;11.00;99.90;;;;;;5034044;28;20161;-82
2021/10/14 02:56:55;;;;;;;10.50;9.13;;;11.00;99.90;;;;;;5033581;28;20421;-81
2021/10/14 02:59:21;;;;;;;10.93;9.50;;;10.90;99.90;;;;;;5033924;28;20392;-81
2021/10/14 03:01:46;;;;;;;11.40;9.40;;;10.90;99.90;;;;;;5033545;28;20692;-81
2021/10/14 03:04:12;;;;;;;12.17;10.77;;;10.90;99.90;;;;;;5033527;28;20539;-82
2021/10/14 03:06:37;;;;;;;11.73;10.00;;;10.90;99.90;;;;;;5033581;28;20176;-77
2021/10/14 03:09:04;;;;;;;15.23;10.37;;;10.80;99.90;;;;;;5033487;28;20196;-80
2021/10/14 03:11:30;;;;;;;11.40;10.30;;;10.80;99.90;;;;;;5033351;28;20205;-82
2021/10/14 03:13:55;;;;;;;12.20;10.40;;;10.80;99.90;;;;;;5033517;28;20423;-82
2021/10/14 03:16:21;;;;;;;17.63;12.20;;;10.80;99.90;;;;;;5033284;28;20897;-82
2021/10/14 03:18:48;;;;;;;12.73;11.10;;;10.70;99.90;;;;;;5033264;28;20187;-81
2021/10/14 03:21:14;;;;;;;14.77;12.03;;;10.70;99.90;;;;;;5033224;28;20181;-81
2021/10/14 03:23:40;;;;;;;14.60;12.10;;;10.70;99.90;;;;;;5033303;28;20822;-81
2021/10/14 03:26:05;;;;;;;15.33;12.80;;;10.70;99.90;;;;;;5033337;28;20461;-79
2021/10/14 03:28:31;;;;;;;14.87;13.50;;;10.70;99.90;;;;;;5032897;28;20756;-81
2021/10/14 03:30:57;;;;;;;15.70;14.00;;;10.70;99.90;;;;;;5033148;28;20169;-79
2021/10/14 03:33:23;;;;;;;15.90;13.47;;;10.70;99.90;;;;;;5032928;28;20176;-76
2021/10/14 03:35:48;;;;;;;17.70;13.17;;;10.70;99.90;;;;;;5033188;28;20157;-82
2021/10/14 03:38:14;;;;;;;15.37;13.77;;;10.70;99.90;;;;;;5032468;28;20243;-81
2021/10/14 03:40:40;;;;;;;16.90;14.93;;;10.70;99.90;;;;;;5032673;28;20644;-81
2021/10/14 03:43:05;;;;;;;19.37;15.83;;;10.70;99.90;;;;;;5022101;28;20295;-82
2021/10/14 03:45:31;;;;;;;18.10;16.33;;;10.70;99.90;;;;;;5022075;28;20431;-82
2021/10/14 03:47:56;;;;;;;17.93;16.13;;;10.70;99.90;;;;;;5028949;28;20368;-81
2021/10/14 03:50:22;;;;;;;25.30;18.60;;;10.70;99.90;;;;;;5023782;28;20176;-82
2021/10/14 03:52:48;;;;;;;20.30;17.80;;;10.80;99.90;;;;;;5024868;28;20181;-81
2021/10/14 03:55:13;;;;;;;26.13;17.67;;;10.80;99.90;;;;;;5024423;28;20178;-81
2021/10/14 03:57:39;;;;;;;21.50;17.90;;;10.80;99.90;;;;;;5029000;28;20176;-80
2021/10/14 04:00:07;;;;;;;19.03;17.10;;;10.80;99.90;;;;;;5032595;28;20161;-81
2021/10/14 04:02:33;;;;;;;21.80;19.47;;;10.80;99.90;;;;;;5032277;28;20224;-81
2021/10/14 04:04:59;;;;;;;25.10;19.80;;;10.80;99.90;;;;;;5032643;28;20450;-81
2021/10/14 04:07:24;;;;;;;22.43;18.47;;;10.80;99.90;;;;;;5032072;28;20912;-81
2021/10/14 04:09:50;;;;;;;22.40;20.10;;;10.80;99.90;;;;;;5032424;28;20598;-82
2021/10/14 04:12:16;;;;;;;22.83;20.33;;;10.80;99.90;;;;;;5032302;28;20164;-81
2021/10/14 04:14:42;;;;;;;23.83;20.90;;;10.80;99.90;;;;;;5032166;28;20703;-82
2021/10/14 04:17:07;;;;;;;21.63;19.33;;;10.80;99.90;;;;;;5032469;28;20173;-80
2021/10/14 04:19:33;;;;;;;21.93;19.60;;;10.80;99.90;;;;;;5031941;28;20433;-81
2021/10/14 04:21:59;;;;;;;22.53;19.67;;;10.80;99.90;;;;;;5027175;28;20691;-80
2021/10/14 04:24:26;;;;;;;21.13;18.90;;;10.80;99.90;;;;;;5021181;28;20197;-81
2021/10/14 04:26:52;;;;;;;23.67;19.53;;;10.80;99.90;;;;;;5014619;28;20181;-80
2021/10/14 04:29:18;;;;;;;23.70;21.30;;;10.80;99.90;;;;;;5022286;28;20814;-81
2021/10/14 04:31:44;;;;;;;21.87;19.47;;;10.80;99.90;;;;;;5030976;28;20543;-82
2021/10/14 04:34:09;;;;;;;26.90;20.57;;;10.80;99.90;;;;;;5016566;28;20674;-79
2021/10/14 04:36:37;;;;;;;26.03;22.57;;;10.80;99.90;;;;;;5013125;28;20411;-81
2021/10/14 04:39:05;;;;;;;23.20;20.87;;;10.80;99.90;;;;;;5012485;28;20161;-82
2021/10/14 04:41:31;;;;;;;24.30;21.50;;;10.70;99.90;;;;;;5028407;28;20443;-78
2021/10/14 04:43:56;;;;;;;24.93;22.33;;;10.80;99.90;;;;;;5031696;28;20434;-81
2021/10/14 04:46:22;;;;;;;24.73;22.17;;;10.80;99.90;;;;;;5024853;28;20432;-82
2021/10/14 04:48:47;;;;;;;23.37;20.97;;;10.80;99.90;;;;;;5028058;28;20223;-80
2021/10/14 04:51:13;;;;;;;29.60;21.90;;;10.80;99.90;;;;;;5033151;28;20626;-81
2021/10/14 04:53:38;;;;;;;31.00;22.70;;;10.80;99.90;;;;;;5031973;28;20311;-76
2021/10/14 04:56:04;;;;;;;28.07;23.40;;;10.80;99.90;;;;;;5032079;28;20180;-82
2021/10/14 04:58:31;;;;;;;25.70;21.50;;;10.80;99.90;;;;;;5032032;28;20184;-82
2021/10/14 05:00:57;;;;;;;22.90;20.60;;;10.80;99.90;;;;;;5031203;28;20191;-81
2021/10/14 05:03:22;;;;;;;28.43;23.73;;;10.80;99.90;;;;;;5030326;28;20422;-81
2021/10/14 05:05:48;;;;;;;27.57;23.40;;;10.80;99.90;;;;;;5032927;28;20204;-81
2021/10/14 05:08:13;;;;;;;25.40;22.80;;;10.80;99.90;;;;;;5031931;28;20192;-81
2021/10/14 05:10:39;;;;;;;26.57;23.10;;;10.80;99.90;;;;;;5031732;28;20192;-79
2021/10/14 05:13:05;;;;;;;24.87;22.27;;;10.80;99.90;;;;;;5032228;28;20188;-81
2021/10/14 05:15:30;;;;;;;25.70;20.23;;;10.80;99.90;;;;;;5031303;28;20476;-81
2021/10/14 05:17:56;;;;;;;26.07;23.27;;;10.90;99.90;;;;;;5029381;28;20208;-80
2021/10/14 05:20:22;;;;;;;22.87;20.63;;;10.90;99.90;;;;;;5016989;28;20548;-81
2021/10/14 05:22:47;;;;;;;25.10;21.00;;;10.80;99.90;;;;;;5031835;28;20181;-80
2021/10/14 05:25:13;;;;;;;24.37;21.83;;;10.90;99.90;;;;;;5032001;28;20626;-81
2021/10/14 05:27:38;;;;;;;25.10;22.20;;;10.80;99.90;;;;;;5032014;28;20165;-81
2021/10/14 05:30:05;;;;;;;25.67;21.00;;;10.90;99.90;;;;;;5031298;28;20211;-81
2021/10/14 05:32:30;;;;;;;23.93;19.37;;;10.80;99.90;;;;;;5038040;28;20173;-80
2021/10/14 05:34:59;;;;;;;26.97;19.63;;;10.80;99.90;;;;;;5036755;28;20472;-80
2021/10/14 05:37:25;;;;;;;25.87;21.10;;;10.90;99.90;;;;;;5035911;28;20160;-81
2021/10/14 05:39:51;;;;;;;31.67;21.60;;;10.90;99.90;;;;;;5035055;28;20430;-78
2021/10/14 05:42:16;;;;;;;26.37;22.10;;;10.90;99.90;;;;;;5033620;28;20678;-81
2021/10/14 05:44:42;;;;;;;26.47;21.57;;;10.90;99.90;;;;;;5019833;28;20193;-82
2021/10/14 05:47:07;;;;;;;25.47;22.60;;;10.80;99.90;;;;;;5027231;28;20177;-79
2021/10/14 05:49:33;;;;;;;26.30;23.50;;;10.90;99.90;;;;;;5026122;28;20269;-80
2021/10/14 05:51:58;;;;;;;27.33;22.73;;;10.90;99.90;;;;;;5028673;28;20264;-81
2021/10/14 05:54:24;;;;;;;27.33;23.37;;;10.90;99.90;;;;;;5031056;28;20196;-75
2021/10/14 05:56:50;;;;;;;29.20;22.43;;;10.90;99.90;;;;;;5029202;28;20192;-81
2021/10/14 05:59:15;;;;;;;25.30;22.60;;;11.00;99.90;;;;;;5029480;28;20180;-81
2021/10/14 06:01:41;;;;;;;32.00;22.40;;;10.90;99.90;;;;;;5034722;28;20180;-79
2021/10/14 06:04:06;;;;;;;29.70;22.27;;;11.00;99.90;;;;;;5032991;28;20196;-82
2021/10/14 06:06:32;;;;;;;29.87;23.00;;;11.00;99.90;;;;;;5034085;28;20251;-80
2021/10/14 06:08:57;;;;;;;25.60;22.83;;;11.00;99.90;;;;;;5034580;28;20250;-82
2021/10/14 06:11:23;;;;;;;32.57;23.23;;;11.00;99.90;;;;;;5034523;28;20252;-81
2021/10/14 06:13:49;;;;;;;25.37;22.20;;;11.00;99.90;;;;;;5033171;28;20177;-81
2021/10/14 06:16:14;;;;;;;31.23;22.50;;;11.00;99.90;;;;;;5034957;28;20586;-80
2021/10/14 06:18:40;;;;;;;25.97;22.60;;;11.00;99.90;;;;;;5033185;28;20161;-78
2021/10/14 06:21:06;;;;;;;24.77;20.23;;;11.00;99.90;;;;;;5032565;28;20180;-81
2021/10/14 06:23:32;;;;;;;24.70;21.63;;;11.00;99.90;;;;;;5025446;28;20181;-80
2021/10/14 06:25:58;;;;;;;27.50;22.70;;;11.00;99.90;;;;;;5015020;28;20393;-81
2021/10/14 06:28:24;;;;;;;27.70;22.30;;;11.00;99.90;;;;;;5033680;28;20200;-81
2021/10/14 06:30:50;;;;;;;30.10;21.30;;;11.10;99.90;;;;;;5033745;28;20177;-81
2021/10/14 06:33:16;;;;;;;30.20;22.93;;;11.10;99.90;;;;;;5031533;28;20441;-81
2021/10/14 06:35:41;;;;;;;26.77;22.80;;;11.10;99.90;;;;;;5029888;28;20431;-80
2021/10/14 06:38:07;;;;;;;26.23;22.17;;;11.10;99.90;;;;;;5046517;28;20165;-81
2021/10/14 06:40:33;;;;;;;26.97;21.63;;;11.10;99.90;;;;;;5033534;28;20177;-80
2021/10/14 06:42:59;;;;;;;31.00;24.33;;;11.10;99.90;;;;;;5032798;28;20254;-81
2021/10/14 06:45:25;;;;;;;31.20;21.63;;;11.20;99.90;;;;;;5032878;28;20411;-81
2021/10/14 06:47:51;;;;;;;28.80;22.07;;;11.20;99.90;;;;;;5033363;28;20192;-81
2021/10/14 06:50:18;;;;;;;24.67;22.17;;;11.20;99.90;;;;;;5023447;28;20455;-79
2021/10/14 06:52:44;;;;;;;24.17;21.63;;;11.20;99.90;;;;;;5024766;28;20803;-79
2021/10/14 06:55:10;;;;;;;26.67;21.37;;;11.20;99.90;;;;;;5032582;28;20426;-79
2021/10/14 06:57:36;;;;;;;24.40;20.60;;;11.20;99.90;;;;;;5033226;28;20204;-79
2021/10/14 07:00:04;;;;;;;27.50;19.50;;;11.20;99.90;;;;;;5035318;28;20482;-79
2021/10/14 07:02:30;;;;;;;22.13;18.30;;;11.20;99.90;;;;;;5027718;28;20436;-81
2021/10/14 07:04:55;;;;;;;28.50;20.20;;;11.20;99.90;;;;;;5031586;28;20431;-80
2021/10/14 07:07:21;;;;;;;21.50;17.93;;;11.20;99.90;;;;;;5030603;28;20176;-80
2021/10/14 07:09:47;;;;;;;23.97;18.07;;;11.20;99.90;;;;;;5027075;28;20208;-73
2021/10/14 07:12:12;;;;;;;23.70;16.70;;;11.20;99.90;;;;;;5027829;28;20188;-81
2021/10/14 07:14:40;;;;;;;23.83;18.10;;;11.20;99.90;;;;;;5029426;28;20185;-82
2021/10/14 07:17:06;;;;;;;23.30;17.17;;;11.20;99.90;;;;;;5030813;28;20165;-79
2021/10/14 07:19:31;;;;;;;19.37;16.37;;;11.20;99.90;;;;;;5027489;28;20499;-82
2021/10/14 07:21:57;;;;;;;20.60;17.43;;;11.20;99.90;;;;;;5031449;28;20462;-81
2021/10/14 07:24:24;;;;;;;21.87;18.43;;;11.20;99.90;;;;;;5029054;28;20664;-82
2021/10/14 07:26:50;;;;;;;21.10;17.47;;;11.20;99.90;;;;;;5026748;28;20211;-78
2021/10/14 07:29:16;;;;;;;19.10;16.77;;;11.20;99.90;;;;;;5038966;28;20455;-80
2021/10/14 07:31:42;;;;;;;19.40;16.20;;;11.20;99.90;;;;;;5034113;28;20772;-80
2021/10/14 07:34:07;;;;;;;17.90;15.90;;;11.20;99.90;;;;;;5027752;28;20431;-81
2021/10/14 07:36:33;;;;;;;18.83;16.03;;;11.20;99.90;;;;;;5032815;28;20168;-80
2021/10/14 07:39:00;;;;;;;16.63;14.30;;;11.20;99.90;;;;;;5032527;28;20187;-81
2021/10/14 07:41:26;;;;;;;19.40;15.23;;;11.20;99.90;;;;;;5031804;28;20219;-74
2021/10/14 07:43:51;;;;;;;17.53;15.83;;;11.20;99.90;;;;;;5037594;28;20483;-82
2021/10/14 07:46:17;;;;;;;15.90;14.30;;;11.30;99.90;;;;;;5033049;28;20223;-82
2021/10/14 07:48:42;;;;;;;18.70;16.80;;;11.30;99.90;;;;;;5028589;28;20235;-81
2021/10/14 07:51:08;;;;;;;17.90;16.00;;;11.30;99.90;;;;;;5032680;28;20177;-82
2021/10/14 07:53:34;;;;;;;19.70;17.27;;;11.30;99.90;;;;;;5023663;28;20177;-81
2021/10/14 07:55:59;;;;;;;19.47;17.47;;;11.30;99.90;;;;;;5031655;28;20453;-81
2021/10/14 07:58:25;;;;;;;17.50;15.70;;;11.30;99.90;;;;;;5035766;28;20171;-82
2021/10/14 08:00:51;;;;;;;23.60;18.07;;;11.30;99.90;;;;;;5033028;28;20172;-81
2021/10/14 08:03:17;;;;;;;22.00;19.67;;;11.30;99.90;;;;;;5029224;28;20184;-80
2021/10/14 08:05:43;;;;;;;21.80;19.50;;;11.30;99.90;;;;;;5032234;28;20615;-81
2021/10/14 08:08:09;;;;;;;23.70;20.17;;;11.30;99.90;;;;;;5031598;28;20462;-81
2021/10/14 08:10:35;;;;;;;23.20;20.73;;;11.30;99.90;;;;;;5031852;28;20424;-81
2021/10/14 08:13:00;;;;;;;27.50;21.47;;;11.30;99.90;;;;;;5034924;28;20423;-81
2021/10/14 08:15:26;;;;;;;26.77;21.63;;;11.30;99.90;;;;;;5031771;28;20184;-80
2021/10/14 08:17:51;;;;;;;30.07;22.53;;;11.40;99.90;;;;;;5032161;28;20188;-81
2021/10/14 08:20:18;;;;;;;27.20;22.20;;;11.40;99.90;;;;;;5032258;28;20192;-82
2021/10/14 08:22:43;;;;;;;30.37;24.23;;;11.40;99.90;;;;;;5032194;28;20622;-81
2021/10/14 08:25:12;;;;;;;28.30;23.87;;;11.40;99.90;;;;;;5032436;28;20434;-82
2021/10/14 08:27:39;;;;;;;33.10;24.60;;;11.40;99.90;;;;;;5041343;28;20222;-80
2021/10/14 08:30:06;;;;;;;28.33;25.27;;;11.40;99.90;;;;;;5031356;28;20455;-82
2021/10/14 08:32:32;;;;;;;32.30;24.70;;;11.40;99.90;;;;;;5032386;28;20408;-82
2021/10/14 08:34:58;;;;;;;37.63;25.20;;;11.40;99.90;;;;;;5025750;28;20465;-81
2021/10/14 08:37:23;;;;;;;29.97;24.87;;;11.40;99.90;;;;;;5031008;28;20431;-81
2021/10/14 08:39:50;;;;;;;33.30;24.30;;;11.40;99.90;;;;;;5031826;28;20215;-82
2021/10/14 08:42:16;;;;;;;32.23;23.80;;;11.40;99.90;;;;;;5031956;28;20197;-80
2021/10/14 08:44:42;;;;;;;28.97;21.60;;;11.50;99.90;;;;;;5028810;28;20415;-81
2021/10/14 08:47:12;;;;;;;26.27;21.47;;;11.50;99.90;;;;;;5033289;28;20502;-82
2021/10/14 08:49:43;;;;;;;23.53;20.60;;;11.50;99.90;;;;;;5031733;28;20462;-82
2021/10/14 08:52:09;;;;;;;26.57;22.70;;;11.50;99.90;;;;;;5032151;28;20411;-82
2021/10/14 08:54:34;;;;;;;24.40;19.10;;;11.50;99.90;;;;;;5033445;28;20975;-82
2021/10/14 08:57:00;;;;;;;22.13;19.23;;;11.60;99.90;;;;;;5034038;28;20250;-81
2021/10/14 08:59:25;;;;;;;18.53;16.53;;;11.60;99.90;;;;;;5031646;28;20180;-81
2021/10/14 09:04:58;;;;;;;19.77;17.67;;;11.60;99.90;;;;;;5067211;28;20605;-73
2021/10/14 09:07:26;;;;;;;19.10;17.13;;;11.60;99.90;;;;;;5051980;28;20500;-72
2021/10/14 09:09:52;;;;;;;19.63;16.80;;;11.60;99.90;;;;;;5048333;28;20398;-72
2021/10/14 09:12:21;;;;;;;23.93;18.00;;;11.60;99.90;;;;;;5049000;28;20418;-72
2021/10/14 09:15:08;;;;;;;21.17;18.97;;;11.60;99.90;;;;;;5054402;28;20483;-71
2021/10/14 09:23:21;;;;;;;25.83;21.13;;;11.60;99.90;;;;;;5110768;27;20543;-73
2021/10/14 09:25:49;;;;;;;24.10;21.07;;;11.70;99.90;;;;;;5110210;28;20396;-72
2021/10/14 09:28:24;;;;;;;29.33;21.57;;;11.70;99.90;;;;;;5110032;28;20509;-72
2021/10/14 09:30:56;;;;;;;25.13;21.93;;;11.70;99.90;;;;;;5109773;28;20446;-72
2021/10/14 09:33:43;;;;;;;28.50;25.13;;;11.70;99.90;;;;;;5109872;28;20502;-72
2021/10/14 09:36:27;;;;;;;31.23;25.67;;;11.70;99.90;;;;;;5105773;28;20424;-72
2021/10/14 09:39:07;;;;;;;29.63;25.70;;;11.80;99.90;;;;;;5105603;28;20424;-72
2021/10/14 09:41:41;;;;;;;32.43;26.77;;;11.80;99.90;;;;;;5103895;28;20452;-72
2021/10/14 09:44:13;;;;;;;29.60;24.83;;;11.80;99.90;;;;;;5106036;28;20441;-72
2021/10/14 09:52:00;;;;;;;38.93;25.57;;;11.80;99.90;;;;;;5067995;28;21044;-72
2021/10/14 09:54:28;;;;;;;33.90;27.50;;;11.90;99.90;;;;;;5066512;28;20418;-72
2021/10/14 09:56:54;;;;;;;32.60;24.30;;;11.90;99.90;;;;;;5065239;28;20496;-72
2021/10/14 09:59:19;;;;;;;30.43;24.70;;;11.80;99.90;;;;;;5069322;28;20409;-71
2021/10/14 10:01:48;;;;;;;31.30;22.77;;;11.80;99.90;;;;;;5068154;28;20971;-72
2021/10/14 10:04:13;;;;;;;31.80;24.30;;;11.80;99.90;;;;;;5068694;28;20167;-72
2021/10/14 10:06:39;;;;;;;29.50;24.53;;;11.80;99.90;;;;;;5068191;28;20759;-72
2021/10/14 10:09:14;;;;;;;29.60;23.83;;;11.90;99.90;;;;;;5068946;28;20208;-71
2021/10/14 10:11:45;;;;;;;29.90;24.87;;;11.90;99.90;;;;;;5063887;28;20457;-72
2021/10/14 10:14:11;;;;;;;29.50;25.73;;;11.90;99.90;;;;;;5068445;28;20413;-72
2021/10/14 10:16:37;;;;;;;30.90;26.50;;;11.90;99.90;;;;;;5068345;28;20560;-72
2021/10/14 10:19:06;;;;;;;31.50;25.57;;;12.00;99.90;;;;;;5067832;28;20477;-72
2021/10/14 10:24:27;;;;;;;30.57;25.60;;;12.00;99.90;;;;;;5069032;28;20520;-73
2021/10/14 10:26:54;;;;;;;32.33;28.17;;;12.10;99.90;;;;;;5068762;28;20806;-73
2021/10/14 10:37:32;;;;;;;33.33;26.17;;;12.30;99.90;;;;;;5090270;27;20507;-72
2021/10/14 10:42:42;;;;;;;32.60;25.90;;;12.40;99.90;;;;;;5069679;28;21044;-72
2021/10/14 10:45:28;;;;;;;33.13;26.87;;;12.40;99.90;;;;;;5064592;28;20402;-72
2021/10/14 10:53:09;;;;;;;32.37;23.57;;;12.50;99.90;;;;;;5069933;28;20504;-73
2021/10/14 10:55:53;;;;;;;29.90;24.50;;;12.60;99.90;;;;;;5063403;28;20433;-73
2021/10/14 10:58:45;;;;;;;31.93;23.60;;;12.60;99.90;;;;;;5049058;28;20425;-73
2021/10/14 11:01:12;;;;;;;31.47;24.10;;;12.70;99.90;;;;;;5053807;28;20460;-73
2021/10/14 11:03:39;;;;;;;39.53;27.80;;;12.70;99.90;;;;;;5064220;28;21347;-72
2021/10/14 11:06:09;;;;;;;28.73;22.50;;;12.70;99.90;;;;;;5063394;28;20422;-73
2021/10/14 11:08:36;;;;;;;31.53;24.30;;;12.80;99.90;;;;;;5063715;28;20434;-72
2021/10/14 11:13:44;;;;;;;29.60;24.63;;;12.90;99.90;;;;;;5068477;28;20524;-72
2021/10/14 11:16:11;;;;;;;29.43;23.87;;;12.90;99.90;;;;;;5057890;28;20415;-72
2021/10/14 11:18:38;;;;;;;30.10;23.33;;;13.00;99.90;;;;;;5044881;28;20451;-73
2021/10/14 11:21:07;;;;;;;26.90;23.30;;;13.00;99.90;;;;;;5046312;28;20874;-73
2021/10/14 11:23:38;;;;;;;27.83;22.60;;;13.10;99.90;;;;;;5056483;28;20461;-73
2021/10/14 11:29:10;;;;;;;30.33;22.20;;;13.30;99.90;;;;;;5067645;28;20528;-71
2021/10/14 11:31:48;;;;;;;25.63;20.63;;;13.40;99.90;;;;;;5062095;28;20455;-71
2021/10/14 11:34:20;;;;;;;26.00;20.40;;;13.50;99.90;;;;;;5057134;28;20417;-72
2021/10/14 11:39:31;;;;;;;27.00;18.63;;;13.50;99.90;;;;;;5102207;27;20530;-74
2021/10/14 11:41:59;;;;;;;24.70;19.20;;;13.60;99.90;;;;;;5049557;28;20960;-74
2021/10/14 11:44:30;;;;;;;26.07;19.33;;;13.70;99.90;;;;;;5052428;28;20420;-74
2021/10/14 11:46:56;;;;;;;22.03;18.37;;;13.80;99.90;;;;;;5051756;28;20417;-74
2021/10/14 11:49:22;;;;;;;21.70;18.40;;;13.80;99.90;;;;;;5063715;28;20407;-75
2021/10/14 11:51:50;;;;;;;23.27;17.50;;;13.90;99.90;;;;;;5049030;28;20693;-75
2021/10/14 11:54:17;;;;;;;28.20;20.67;;;13.90;99.90;;;;;;5048916;28;20431;-74
2021/10/14 11:56:46;;;;;;;21.67;16.77;;;14.00;99.90;;;;;;5048293;28;20428;-73
2021/10/14 11:59:13;;;;;;;23.40;19.37;;;14.00;99.90;;;;;;5053334;28;20466;-73
2021/10/14 12:04:26;;;;;;;23.30;17.80;;;14.00;99.90;;;;;;5102954;27;20560;-73
2021/10/14 12:06:53;;;;;;;27.37;18.60;;;14.00;99.90;;;;;;5095348;28;20492;-72
2021/10/14 12:09:19;;;;;;;22.47;17.70;;;14.00;99.90;;;;;;5089276;28;20525;-73
2021/10/14 12:11:45;;;;;;;23.77;18.77;;;14.00;99.90;;;;;;5096305;28;20935;-72
2021/10/14 12:14:11;;;;;;;31.23;18.53;;;14.00;99.90;;;;;;5092376;28;20545;-72
2021/10/14 12:16:37;;;;;;;27.40;19.33;;;14.00;99.90;;;;;;5080070;28;20214;-73
2021/10/14 12:19:14;;;;;;;20.10;17.47;;;14.00;99.90;;;;;;5089335;28;20862;-73
2021/10/14 12:21:41;;;;;;;25.17;17.03;;;14.00;99.90;;;;;;5083206;28;20435;-73
2021/10/14 12:24:11;;;;;;;18.33;15.90;;;14.00;99.90;;;;;;5080277;28;20466;-73
2021/10/14 12:26:41;;;;;;;24.63;15.80;;;14.10;99.90;;;;;;5083119;28;20435;-73
2021/10/14 12:29:31;;;;;;;22.40;15.90;;;14.10;99.90;;;;;;5083725;28;20427;-73
2021/10/14 12:32:18;;;;;;;22.80;16.77;;;14.00;99.90;;;;;;5086768;28;20483;-73
2021/10/14 12:37:33;;;;;;;23.23;15.63;;;14.00;99.90;;;;;;5112618;27;20522;-71
2021/10/14 12:40:20;;;;;;;15.90;14.30;;;14.00;99.90;;;;;;5103923;28;20427;-72
2021/10/14 12:51:18;;;;;;;19.73;14.53;;;14.10;99.90;;;;;;5086019;27;21044;-72
2021/10/14 12:56:34;;;;;;;17.40;13.90;;;14.10;99.90;;;;;;5066680;27;20589;-71
2021/10/14 12:59:03;;;;;;;15.30;12.70;;;14.30;99.90;;;;;;5069447;28;20967;-71
2021/10/14 13:01:29;;;;;;;15.03;12.47;;;14.30;99.90;;;;;;5066434;28;20463;-71
2021/10/14 13:03:55;;;;;;;17.50;13.53;;;14.30;99.90;;;;;;5068558;28;20464;-72
2021/10/14 13:06:21;;;;;;;16.43;14.17;;;14.30;99.90;;;;;;5066764;28;20861;-72
2021/10/14 13:08:47;;;;;;;15.70;14.10;;;14.30;99.90;;;;;;5066357;28;20658;-71
2021/10/14 13:11:16;;;;;;;17.93;15.90;;;14.20;99.90;;;;;;5064703;28;20187;-71
2021/10/14 13:13:43;;;;;;;16.20;12.80;;;14.20;99.90;;;;;;5066401;28;20421;-71
2021/10/14 13:16:10;;;;;;;15.20;12.57;;;14.20;99.90;;;;;;5066224;28;20545;-71
2021/10/14 13:18:37;;;;;;;17.17;13.03;;;14.30;99.90;;;;;;5067063;28;20428;-73
2021/10/14 13:21:05;;;;;;;16.73;14.00;;;14.30;99.90;;;;;;5066817;28;20411;-71
2021/10/14 13:23:31;;;;;;;17.50;13.30;;;14.30;99.90;;;;;;5067610;28;20418;-70
2021/10/14 13:25:58;;;;;;;22.27;14.90;;;14.40;99.90;;;;;;5068539;28;20920;-71
2021/10/14 13:28:29;;;;;;;15.93;13.90;;;14.40;99.90;;;;;;5067605;28;20436;-71